createdAt,value
2022-12-09T00:00:13.217Z,15.25
2022-12-09T00:02:41.149Z,16.43
2022-12-09T00:05:09.501Z,15.80
2022-12-09T00:07:37.083Z,16.00
2022-12-09T00:10:06.166Z,15.18
2022-12-09T00:12:33.931Z,16.70
2022-12-09T00:15:06.008Z,15.60
2022-12-09T00:17:33.898Z,16.55
2022-12-09T00:20:01.610Z,15.95
2022-12-09T00:22:29.491Z,14.95
2022-12-09T00:24:57.468Z,15.60
2022-12-09T00:27:25.006Z,14.37
2022-12-09T00:29:52.665Z,14.87
2022-12-09T00:32:20.503Z,15.38
2022-12-09T00:34:49.019Z,15.35
2022-12-09T00:37:16.686Z,17.40
2022-12-09T00:39:44.506Z,16.17
2022-12-09T00:42:11.970Z,16.58
2022-12-09T00:44:39.435Z,16.20
2022-12-09T00:47:07.330Z,16.55
2022-12-09T00:49:35.136Z,16.25
2022-12-09T00:52:02.779Z,15.03
2022-12-09T00:54:30.814Z,14.63
2022-12-09T00:56:58.281Z,15.02
2022-12-09T00:59:26.197Z,16.12
2022-12-09T01:01:53.963Z,17.42
2022-12-09T01:04:22.065Z,17.33
2022-12-09T01:06:49.610Z,17.10
2022-12-09T01:09:17.899Z,16.45
2022-12-09T01:11:45.568Z,17.42
2022-12-09T01:14:13.324Z,16.87
2022-12-09T01:16:41.176Z,18.50
2022-12-09T01:19:11.200Z,17.87
2022-12-09T01:21:38.923Z,16.83
2022-12-09T01:24:09.264Z,16.67
2022-12-09T01:26:37.677Z,17.25
2022-12-09T01:29:05.751Z,15.40
2022-12-09T01:31:33.701Z,14.07
2022-12-09T01:34:03.373Z,15.57
2022-12-09T01:36:31.241Z,16.40
2022-12-09T01:39:00.252Z,15.13
2022-12-09T01:41:28.190Z,15.83
2022-12-09T01:44:11.093Z,17.27
2022-12-09T01:46:38.953Z,15.68
2022-12-09T01:49:08.719Z,17.67
2022-12-09T01:51:37.328Z,17.98
2022-12-09T01:54:05.621Z,18.40
2022-12-09T01:56:35.180Z,16.50
2022-12-09T01:59:07.187Z,17.42
2022-12-09T02:01:36.059Z,17.80
2022-12-09T02:04:05.082Z,19.23
2022-12-09T02:06:36.452Z,19.00
2022-12-09T02:09:05.083Z,18.23
2022-12-09T02:11:48.690Z,18.55
2022-12-09T02:14:29.703Z,17.92
2022-12-09T02:17:06.358Z,18.25
2022-12-09T02:19:53.806Z,18.83
2022-12-09T02:22:24.867Z,18.30
2022-12-09T02:25:02.072Z,18.83
2022-12-09T02:27:37.712Z,18.60
2022-12-09T02:30:14.836Z,19.27
2022-12-09T02:33:18.237Z,19.07
2022-12-09T02:35:54.981Z,16.37
2022-12-09T02:38:27.682Z,16.42
2022-12-09T02:41:12.694Z,17.65
2022-12-09T02:43:50.119Z,20.02
2022-12-09T02:46:20.790Z,18.77
2022-12-09T02:48:52.908Z,19.67
2022-12-09T02:51:21.878Z,19.60
2022-12-09T02:53:53.160Z,19.27
2022-12-09T02:56:21.748Z,18.60
2022-12-09T02:58:49.803Z,20.83
2022-12-09T03:01:38.581Z,19.20
2022-12-09T03:04:07.766Z,20.27
2022-12-09T03:06:42.662Z,19.75
2022-12-09T03:09:14.517Z,20.60
2022-12-09T03:11:42.764Z,19.07
2022-12-09T03:14:17.682Z,20.88
2022-12-09T03:17:08.287Z,19.42
2022-12-09T03:19:44.228Z,20.08
2022-12-09T03:22:15.992Z,19.77
2022-12-09T03:24:53.207Z,21.33
2022-12-09T03:27:26.544Z,21.52
2022-12-09T03:29:54.826Z,21.30
2022-12-09T03:32:25.529Z,22.50
2022-12-09T03:34:58.772Z,20.48
2022-12-09T03:37:26.864Z,20.70
2022-12-09T03:39:55.382Z,19.67
2022-12-09T03:42:28.582Z,20.80
2022-12-09T03:45:06.243Z,20.58
2022-12-09T03:47:34.156Z,19.58
2022-12-09T03:50:02.342Z,19.50
2022-12-09T03:52:37.967Z,20.42
2022-12-09T03:55:19.864Z,19.87
2022-12-09T03:57:50.219Z,19.85
2022-12-09T04:00:18.421Z,19.25
2022-12-09T04:02:47.156Z,19.30
2022-12-09T04:05:14.923Z,19.70
2022-12-09T04:07:42.679Z,18.50
2022-12-09T04:10:11.004Z,19.85
2022-12-09T04:12:40.285Z,18.83
2022-12-09T04:15:10.324Z,19.10
2022-12-09T04:17:38.526Z,18.23
2022-12-09T04:20:07.662Z,18.27
2022-12-09T04:22:35.639Z,17.33
2022-12-09T04:25:03.670Z,17.95
2022-12-09T04:27:31.458Z,18.63
2022-12-09T04:29:58.979Z,19.15
2022-12-09T04:32:26.737Z,17.90
2022-12-09T04:34:54.305Z,16.52
2022-12-09T04:37:21.960Z,15.90
2022-12-09T04:39:49.878Z,15.30
2022-12-09T04:42:17.314Z,14.73
2022-12-09T04:44:44.833Z,14.07
2022-12-09T04:47:12.758Z,14.27
2022-12-09T04:49:40.384Z,14.50
2022-12-09T04:52:08.023Z,15.10
2022-12-09T04:54:35.801Z,14.65
2022-12-09T04:57:03.812Z,14.85
2022-12-09T04:59:31.864Z,15.80
2022-12-09T05:02:00.180Z,14.40
2022-12-09T05:04:28.171Z,14.50
2022-12-09T05:06:55.777Z,14.73
2022-12-09T05:09:23.804Z,15.35
2022-12-09T05:11:52.515Z,14.80
2022-12-09T05:14:20.343Z,14.60
2022-12-09T05:16:48.276Z,13.70
2022-12-09T05:19:15.906Z,14.90
2022-12-09T05:21:46.437Z,15.82
2022-12-09T05:24:14.329Z,17.55
2022-12-09T05:26:41.882Z,17.20
2022-12-09T05:29:10.004Z,18.27
2022-12-09T05:31:37.943Z,16.65
2022-12-09T05:34:05.610Z,16.70
2022-12-09T05:36:33.559Z,14.80
2022-12-09T05:39:01.622Z,16.25
2022-12-09T05:41:29.276Z,17.47
2022-12-09T05:43:57.172Z,17.33
2022-12-09T05:46:25.065Z,17.00
2022-12-09T05:48:53.144Z,17.37
2022-12-09T05:51:26.375Z,16.87
2022-12-09T05:53:54.886Z,16.60
2022-12-09T05:56:24.326Z,16.35
2022-12-09T05:58:52.776Z,17.08
2022-12-09T06:01:22.154Z,16.98
2022-12-09T06:03:52.091Z,17.55
2022-12-09T06:06:22.083Z,16.53
2022-12-09T06:08:55.637Z,16.70
2022-12-09T06:11:24.065Z,16.48
2022-12-09T06:13:52.515Z,17.35
2022-12-09T06:16:22.380Z,16.62
2022-12-09T06:18:50.679Z,15.63
2022-12-09T06:21:20.979Z,16.70
2022-12-09T06:23:49.757Z,16.42
2022-12-09T06:26:20.286Z,16.85
2022-12-09T06:28:48.274Z,15.93
2022-12-09T06:31:16.837Z,16.17
2022-12-09T06:33:54.791Z,16.15
2022-12-09T06:36:24.232Z,17.02
2022-12-09T06:38:52.594Z,16.02
2022-12-09T06:41:21.275Z,15.90
2022-12-09T06:43:49.420Z,15.73
2022-12-09T06:46:25.223Z,15.90
2022-12-09T06:48:54.892Z,15.70
2022-12-09T06:51:23.792Z,17.27
2022-12-09T06:53:51.389Z,14.82
2022-12-09T06:56:19.782Z,15.97
2022-12-09T06:58:48.601Z,15.02
2022-12-09T07:01:19.789Z,15.15
2022-12-09T07:03:50.517Z,15.60
2022-12-09T07:06:39.324Z,15.57
2022-12-09T07:09:19.663Z,15.60
2022-12-09T07:11:48.321Z,15.43
2022-12-09T07:14:18.301Z,15.07
2022-12-09T07:16:46.863Z,14.68
2022-12-09T07:19:17.978Z,14.93
2022-12-09T07:21:46.328Z,13.87
2022-12-09T07:24:14.119Z,14.40
2022-12-09T07:26:41.931Z,13.27
2022-12-09T07:29:09.943Z,13.35
2022-12-09T07:31:38.273Z,12.93
2022-12-09T07:34:06.686Z,14.70
2022-12-09T07:36:35.784Z,13.68
2022-12-09T07:39:06.372Z,13.10
2022-12-09T07:41:34.531Z,12.15
2022-12-09T07:44:02.799Z,12.10
2022-12-09T07:46:30.722Z,13.83
2022-12-09T07:48:58.988Z,13.95
2022-12-09T07:51:27.631Z,13.32
2022-12-09T07:53:56.322Z,11.93
2022-12-09T07:56:24.878Z,11.63
2022-12-09T07:58:54.089Z,10.47
2022-12-09T08:01:24.397Z,10.88
2022-12-09T08:03:53.453Z,11.90
2022-12-09T08:06:23.991Z,18.02
2022-12-09T08:08:52.997Z,10.32
2022-12-09T08:11:23.678Z,10.27
2022-12-09T08:13:53.199Z,10.27
2022-12-09T08:16:22.639Z,10.55
2022-12-09T08:18:51.802Z,10.82
2022-12-09T08:21:22.684Z,11.48
2022-12-09T08:23:51.520Z,10.67
2022-12-09T08:26:21.409Z,10.35
2022-12-09T08:28:50.248Z,8.68
2022-12-09T08:31:24.019Z,9.48
2022-12-09T08:33:53.205Z,8.95
2022-12-09T08:36:24.076Z,8.07
2022-12-09T08:38:52.463Z,9.02
2022-12-09T08:41:38.924Z,8.57
2022-12-09T08:44:09.056Z,7.97
2022-12-09T08:46:39.096Z,8.38
2022-12-09T08:49:07.599Z,7.37
2022-12-09T08:51:36.576Z,6.78
2022-12-09T08:54:05.247Z,7.37
2022-12-09T08:56:33.687Z,7.53
2022-12-09T08:59:01.500Z,5.85
2022-12-09T09:01:35.575Z,6.50
2022-12-09T09:04:08.121Z,6.32
2022-12-09T09:06:37.630Z,5.80
2022-12-09T09:09:07.922Z,5.80
2022-12-09T09:11:36.530Z,5.32
2022-12-09T09:14:06.731Z,5.00
2022-12-09T09:16:35.674Z,4.80
2022-12-09T09:19:06.021Z,5.05
2022-12-09T09:21:34.908Z,5.18
2022-12-09T09:24:08.701Z,5.03
2022-12-09T09:26:40.141Z,5.57
2022-12-09T09:29:08.672Z,4.28
2022-12-09T09:31:36.631Z,4.50
2022-12-09T09:34:04.878Z,4.90
2022-12-09T09:36:33.391Z,4.25
2022-12-09T09:39:01.504Z,8.07
2022-12-09T09:41:43.855Z,6.75
2022-12-09T09:44:39.443Z,6.25
2022-12-09T09:47:40.065Z,6.10
2022-12-09T09:50:45.789Z,5.20
2022-12-09T09:53:35.520Z,5.83
2022-12-09T09:56:43.841Z,5.68
2022-12-09T09:59:31.817Z,5.35
2022-12-09T10:02:12.649Z,5.40
2022-12-09T10:05:00.569Z,6.18
2022-12-09T10:07:39.903Z,4.80
2022-12-09T10:10:36.614Z,5.07
2022-12-09T10:13:18.343Z,4.87
2022-12-09T10:16:05.472Z,5.12
2022-12-09T10:18:37.834Z,4.47
2022-12-09T10:21:16.508Z,4.80
2022-12-09T10:23:45.802Z,4.53
2022-12-09T10:26:24.900Z,4.35
2022-12-09T10:29:23.280Z,4.28
2022-12-09T10:31:51.499Z,5.12
2022-12-09T10:34:19.603Z,4.57
2022-12-09T10:36:48.078Z,4.47
2022-12-09T10:39:20.441Z,5.30
2022-12-09T10:42:12.076Z,5.30
2022-12-09T10:44:40.378Z,5.25
2022-12-09T10:47:25.999Z,5.37
2022-12-09T10:49:55.275Z,5.22
2022-12-09T10:52:24.986Z,5.37
2022-12-09T10:54:52.998Z,5.35
2022-12-09T10:57:25.278Z,5.10
2022-12-09T11:00:27.090Z,5.20
2022-12-09T11:02:57.752Z,4.97
2022-12-09T11:05:30.205Z,5.80
2022-12-09T11:07:59.493Z,5.03
2022-12-09T11:10:29.633Z,5.30
2022-12-09T11:13:03.809Z,5.27
2022-12-09T11:15:38.312Z,5.45
2022-12-09T11:18:28.218Z,4.43
2022-12-09T11:20:58.218Z,4.53
2022-12-09T11:23:27.341Z,6.12
2022-12-09T11:26:06.302Z,5.33
2022-12-09T11:28:37.746Z,5.40
2022-12-09T11:31:29.367Z,5.35
2022-12-09T11:34:04.458Z,5.85
2022-12-09T11:36:37.123Z,5.97
2022-12-09T11:39:14.052Z,6.00
2022-12-09T11:42:04.934Z,5.53
2022-12-09T11:44:34.300Z,6.22
2022-12-09T11:47:13.776Z,6.28
2022-12-09T11:49:49.764Z,5.62
2022-12-09T11:52:17.162Z,5.73
2022-12-09T11:54:54.503Z,6.15
2022-12-09T11:57:29.846Z,6.03
2022-12-09T12:00:02.198Z,6.20
2022-12-09T12:02:42.277Z,5.65
2022-12-09T12:05:21.656Z,6.10
2022-12-09T12:08:01.591Z,6.47
2022-12-09T12:10:35.845Z,6.10
2022-12-09T12:13:28.824Z,6.20
2022-12-09T12:16:14.337Z,5.90
2022-12-09T12:19:26.930Z,6.40
2022-12-09T12:22:19.315Z,6.35
2022-12-09T12:25:05.561Z,6.28
2022-12-09T12:27:41.998Z,6.32
2022-12-09T12:30:17.460Z,6.90
2022-12-09T12:33:59.877Z,6.20
2022-12-09T12:36:30.159Z,6.75
2022-12-09T12:39:14.372Z,6.57
2022-12-09T12:41:57.859Z,6.90
2022-12-09T12:44:49.915Z,6.45
2022-12-09T12:47:23.093Z,6.67
2022-12-09T12:50:26.382Z,7.10
2022-12-09T12:53:09.090Z,6.43
2022-12-09T12:55:43.098Z,7.35
2022-12-09T12:58:16.452Z,7.50
2022-12-09T13:01:04.551Z,7.00
2022-12-09T13:03:53.004Z,6.75
2022-12-09T13:06:29.580Z,7.62
2022-12-09T13:09:03.237Z,7.60
2022-12-09T13:12:12.699Z,6.72
2022-12-09T13:14:54.132Z,6.90
2022-12-09T13:17:27.327Z,7.65
2022-12-09T13:19:58.991Z,8.05
2022-12-09T13:22:43.412Z,8.45
2022-12-09T13:25:26.119Z,8.77
2022-12-09T13:28:18.111Z,8.03
2022-12-09T13:30:56.508Z,7.85
2022-12-09T13:33:40.823Z,6.93
2022-12-09T13:36:08.297Z,7.37
2022-12-09T13:38:42.405Z,6.07
2022-12-09T13:41:57.094Z,6.27
2022-12-09T13:44:30.619Z,6.90
2022-12-09T13:47:25.906Z,6.18
2022-12-09T13:49:59.799Z,6.57
2022-12-09T13:52:46.517Z,6.10
2022-12-09T13:55:39.637Z,5.80
2022-12-09T13:58:19.420Z,6.80
2022-12-09T14:01:04.525Z,6.10
2022-12-09T14:03:34.842Z,6.65
2022-12-09T14:06:07.046Z,6.78
2022-12-09T14:08:41.326Z,6.23
2022-12-09T14:11:37.202Z,6.47
2022-12-09T14:14:23.195Z,6.75
2022-12-09T14:16:52.015Z,6.55
2022-12-09T14:19:25.664Z,6.37
2022-12-09T14:22:18.649Z,5.27
2022-12-09T14:25:39.126Z,5.72
2022-12-09T14:28:09.816Z,5.97
2022-12-09T14:31:03.395Z,5.68
2022-12-09T14:33:46.738Z,6.75
2022-12-09T14:36:14.350Z,6.53
2022-12-09T14:39:23.597Z,6.65
2022-12-09T14:42:13.459Z,5.78
2022-12-09T14:44:48.058Z,6.43
2022-12-09T14:47:23.715Z,7.12
2022-12-09T14:49:53.064Z,5.93
2022-12-09T14:52:30.908Z,6.28
2022-12-09T14:55:00.599Z,6.05
2022-12-09T14:57:43.341Z,6.37
2022-12-09T15:00:26.056Z,6.62
2022-12-09T15:03:23.454Z,7.23
2022-12-09T15:06:13.823Z,7.60
2022-12-09T15:08:42.067Z,7.65
2022-12-09T15:11:15.994Z,8.50
2022-12-09T15:13:47.110Z,8.60
2022-12-09T15:16:17.180Z,7.20
2022-12-09T15:18:45.435Z,8.45
2022-12-09T15:21:32.634Z,7.93
2022-12-09T15:24:00.760Z,8.15
2022-12-09T15:26:30.721Z,8.85
2022-12-09T15:28:59.559Z,8.03
2022-12-09T15:31:29.435Z,8.75
2022-12-09T15:33:59.259Z,8.23
2022-12-09T15:36:36.847Z,8.48
2022-12-09T15:39:44.624Z,9.40
2022-12-09T15:42:16.859Z,8.60
2022-12-09T15:44:45.776Z,8.48
2022-12-09T15:47:47.646Z,8.65
2022-12-09T15:50:21.464Z,8.38
2022-12-09T15:53:12.684Z,8.77
2022-12-09T15:56:33.987Z,9.00
2022-12-09T15:59:08.340Z,9.07
2022-12-09T16:01:36.312Z,10.60
2022-12-09T16:04:06.157Z,9.25
2022-12-09T16:06:36.039Z,8.70
2022-12-09T16:09:12.887Z,8.60
2022-12-09T16:11:45.977Z,8.65
2022-12-09T16:14:14.584Z,8.73
2022-12-09T16:16:57.344Z,8.93
2022-12-09T16:19:31.019Z,9.32
2022-12-09T16:22:05.927Z,9.13
2022-12-09T16:24:58.022Z,9.38
2022-12-09T16:27:25.773Z,8.43
2022-12-09T16:29:56.988Z,7.43
2022-12-09T16:32:41.470Z,8.80
2022-12-09T16:35:27.390Z,9.27
2022-12-09T16:37:57.702Z,7.93
2022-12-09T16:40:25.385Z,8.63
2022-12-09T16:42:54.803Z,8.35
2022-12-09T16:45:32.968Z,7.87
2022-12-09T16:48:01.041Z,8.37
2022-12-09T16:50:34.597Z,7.93
2022-12-09T16:53:05.604Z,7.18
2022-12-09T16:55:33.192Z,7.50
2022-12-09T16:58:00.746Z,7.28
2022-12-09T17:00:28.543Z,7.20
2022-12-09T17:03:02.979Z,7.12
2022-12-09T17:05:30.679Z,7.78
2022-12-09T17:07:58.392Z,7.12
2022-12-09T17:10:25.919Z,7.12
2022-12-09T17:12:54.049Z,7.27
2022-12-09T17:15:21.592Z,6.62
2022-12-09T17:17:49.237Z,6.82
2022-12-09T17:20:17.352Z,6.20
2022-12-09T17:22:44.895Z,7.10
2022-12-09T17:25:12.461Z,7.13
2022-12-09T17:27:40.361Z,7.35
2022-12-09T17:30:08.971Z,7.30
2022-12-09T17:32:37.655Z,7.78
2022-12-09T17:35:12.057Z,7.35
2022-12-09T17:37:40.154Z,8.10
2022-12-09T17:40:09.595Z,8.65
2022-12-09T17:42:37.307Z,7.65
2022-12-09T17:45:05.464Z,7.65
2022-12-09T17:47:33.498Z,7.37
2022-12-09T17:50:01.358Z,8.07
2022-12-09T17:52:28.901Z,6.78
2022-12-09T17:54:56.651Z,6.93
2022-12-09T17:57:24.174Z,5.87
2022-12-09T17:59:51.707Z,5.62
2022-12-09T18:02:19.652Z,6.20
2022-12-09T18:04:47.390Z,5.07
2022-12-09T18:07:14.929Z,4.78
2022-12-09T18:09:42.454Z,5.57
2022-12-09T18:12:10.208Z,6.03
2022-12-09T18:14:37.778Z,5.87
2022-12-09T18:17:05.547Z,5.05
2022-12-09T18:19:35.273Z,5.85
2022-12-09T18:22:02.962Z,5.35
2022-12-09T18:24:30.412Z,5.35
2022-12-09T18:26:58.463Z,4.33
2022-12-09T18:29:26.728Z,5.18
2022-12-09T18:31:56.938Z,5.00
2022-12-09T18:34:26.246Z,4.60
2022-12-09T18:36:54.401Z,4.45
2022-12-09T18:39:22.080Z,4.80
2022-12-09T18:41:49.946Z,4.80
2022-12-09T18:44:17.486Z,4.00
2022-12-09T18:46:47.885Z,4.62
2022-12-09T18:49:21.567Z,4.47
2022-12-09T18:51:51.060Z,4.40
2022-12-09T18:54:23.369Z,4.28
2022-12-09T18:56:51.230Z,4.03
2022-12-09T18:59:20.556Z,4.85
2022-12-09T19:01:48.721Z,4.30
2022-12-09T19:04:22.052Z,4.50
2022-12-09T19:06:52.162Z,4.78
2022-12-09T19:09:24.859Z,4.68
2022-12-09T19:11:53.767Z,4.37
2022-12-09T19:14:22.749Z,5.03
2022-12-09T19:16:51.291Z,5.40
2022-12-09T19:19:23.730Z,5.00
2022-12-09T19:21:51.811Z,4.60
2022-12-09T19:24:23.823Z,5.18
2022-12-09T19:26:53.804Z,5.18
2022-12-09T19:29:24.569Z,5.67
2022-12-09T19:31:53.792Z,4.75
2022-12-09T19:34:24.926Z,4.57
2022-12-09T19:36:54.237Z,4.40
2022-12-09T19:39:24.581Z,4.15
2022-12-09T19:41:52.882Z,4.07
2022-12-09T19:44:44.207Z,4.20
2022-12-09T19:47:10.554Z,3.90
2022-12-09T19:49:40.874Z,4.75
2022-12-09T19:52:08.398Z,4.30
2022-12-09T19:54:36.210Z,3.90
2022-12-09T19:57:03.687Z,3.78
2022-12-09T19:59:31.138Z,5.30
2022-12-09T20:01:58.983Z,4.25
2022-12-09T20:07:15.908Z,3.93
2022-12-09T20:09:43.654Z,3.60
2022-12-09T20:12:12.531Z,3.90
2022-12-09T20:14:40.046Z,3.58
2022-12-09T20:17:08.005Z,4.00
2022-12-09T20:19:36.686Z,4.17
2022-12-09T20:22:04.403Z,3.78
2022-12-09T20:24:32.177Z,3.55
2022-12-09T20:26:59.692Z,3.28
2022-12-09T20:29:31.133Z,3.67
2022-12-09T20:32:02.237Z,3.43
2022-12-09T20:34:29.681Z,3.47
2022-12-09T20:36:57.241Z,3.67
2022-12-09T20:39:24.951Z,4.60
2022-12-09T20:41:52.489Z,3.62
2022-12-09T20:44:24.226Z,4.40
2022-12-09T20:46:53.251Z,3.87
2022-12-09T20:49:26.413Z,4.78
2022-12-09T20:51:54.894Z,5.20
2022-12-09T20:54:22.535Z,5.50
2022-12-09T20:56:50.361Z,4.57
2022-12-09T20:59:18.272Z,5.55
2022-12-09T21:01:47.219Z,6.65
2022-12-09T21:04:15.241Z,8.00
2022-12-09T21:06:43.107Z,8.55
2022-12-09T21:09:18.525Z,7.13
2022-12-09T21:11:47.434Z,9.43
2022-12-09T21:14:18.170Z,8.20
2022-12-09T21:16:50.614Z,8.55
2022-12-09T21:19:24.331Z,10.20
2022-12-09T21:21:52.763Z,10.07
2022-12-09T21:24:21.824Z,9.32
2022-12-09T21:26:53.455Z,10.70
2022-12-09T21:29:22.308Z,11.45
2022-12-09T21:31:54.664Z,11.50
2022-12-09T21:34:24.276Z,11.27
2022-12-09T21:36:51.920Z,11.65
2022-12-09T21:39:20.077Z,11.32
2022-12-09T21:41:47.963Z,12.50
2022-12-09T21:44:19.004Z,10.68
2022-12-09T21:46:46.617Z,12.30
2022-12-09T21:49:14.802Z,11.63
2022-12-09T21:51:42.802Z,12.68
2022-12-09T21:54:10.922Z,13.25
2022-12-09T21:56:38.699Z,12.88
2022-12-09T21:59:07.329Z,13.20
2022-12-09T22:01:40.844Z,14.80
2022-12-09T22:04:11.744Z,14.40
2022-12-09T22:06:39.822Z,13.70
2022-12-09T22:09:08.150Z,13.90
2022-12-09T22:11:37.432Z,13.73
2022-12-09T22:14:06.401Z,13.05
2022-12-09T22:16:39.563Z,13.05
2022-12-09T22:19:08.421Z,14.13
2022-12-09T22:21:36.898Z,14.68
2022-12-09T22:24:06.660Z,14.47
2022-12-09T22:26:34.442Z,13.52
2022-12-09T22:29:03.250Z,15.00
2022-12-09T22:31:34.107Z,13.62
2022-12-09T22:34:13.178Z,15.32
2022-12-09T22:36:41.222Z,14.83
2022-12-09T22:39:13.558Z,14.90
2022-12-09T22:41:41.563Z,14.63
2022-12-09T22:44:11.494Z,16.25
2022-12-09T22:46:39.318Z,15.77
2022-12-09T22:49:07.230Z,15.33
2022-12-09T22:51:36.263Z,16.23
2022-12-09T22:54:10.652Z,16.05
2022-12-09T22:56:40.255Z,13.70
2022-12-09T22:59:07.918Z,15.52
2022-12-09T23:01:37.299Z,14.27
2022-12-09T23:04:07.056Z,14.98
2022-12-09T23:06:36.818Z,15.70
2022-12-09T23:09:05.817Z,14.63
2022-12-09T23:11:34.243Z,14.77
2022-12-09T23:14:01.753Z,14.93
2022-12-09T23:16:29.168Z,15.02
2022-12-09T23:18:58.245Z,14.27
2022-12-09T23:21:28.995Z,14.02
2022-12-09T23:23:58.737Z,14.70
2022-12-09T23:26:27.680Z,14.20
2022-12-09T23:28:56.654Z,14.77
2022-12-09T23:31:27.087Z,14.27
2022-12-09T23:33:54.969Z,13.90
2022-12-09T23:36:25.144Z,14.43
2022-12-09T23:38:53.623Z,16.03
2022-12-09T23:41:22.326Z,14.75
2022-12-09T23:43:50.302Z,13.88
2022-12-09T23:46:22.879Z,13.25
2022-12-09T23:48:51.646Z,13.50
2022-12-09T23:51:25.022Z,14.30
2022-12-09T23:53:54.889Z,14.35
2022-12-09T23:56:24.491Z,14.38
2022-12-09T23:58:58.246Z,15.05
